sensor_id;sensor_type;location;lat;lon;timestamp;pressure;altitude;pressure_sealevel;temperature
82774;BMP280;72508;45.118;20.728;2024-03-23T00:56:06;100430.91;;;14.57
82774;BMP280;72508;45.118;20.728;2024-03-23T01:06:08;100430.34;;;14.55
82774;BMP280;72508;45.118;20.728;2024-03-23T01:16:11;100417.72;;;14.57
82774;BMP280;72508;45.118;20.728;2024-03-23T01:26:16;100401.72;;;14.47
82774;BMP280;72508;45.118;20.728;2024-03-23T01:36:20;100395.72;;;14.35
82774;BMP280;72508;45.118;20.728;2024-03-23T01:46:22;100400.50;;;14.38
82774;BMP280;72508;45.118;20.728;2024-03-23T01:56:24;100373.41;;;14.25
82774;BMP280;72508;45.118;20.728;2024-03-23T02:06:26;100380.78;;;14.23
82774;BMP280;72508;45.118;20.728;2024-03-23T02:16:28;100373.41;;;14.25
82774;BMP280;72508;45.118;20.728;2024-03-23T02:26:30;100356.94;;;14.18
82774;BMP280;72508;45.118;20.728;2024-03-23T02:36:32;100354.00;;;14.15
82774;BMP280;72508;45.118;20.728;2024-03-23T02:46:34;100356.94;;;14.18
82774;BMP280;72508;45.118;20.728;2024-03-23T02:56:36;100342.34;;;13.99
82774;BMP280;72508;45.118;20.728;2024-03-23T03:06:38;100327.50;;;13.93
82774;BMP280;72508;45.118;20.728;2024-03-23T03:16:40;100314.50;;;13.74
82774;BMP280;72508;45.118;20.728;2024-03-23T03:26:42;100324.59;;;13.77
82774;BMP280;72508;45.118;20.728;2024-03-23T03:36:43;100323.34;;;13.68
82774;BMP280;72508;45.118;20.728;2024-03-23T03:46:45;100311.59;;;13.59
82774;BMP280;72508;45.118;20.728;2024-03-23T03:56:47;100303.03;;;13.52
82774;BMP280;72508;45.118;20.728;2024-03-23T04:06:49;100310.66;;;13.42
82774;BMP280;72508;45.118;20.728;2024-03-23T04:16:51;100304.66;;;13.29
82774;BMP280;72508;45.118;20.728;2024-03-23T04:26:53;100316.91;;;13.12
82774;BMP280;72508;45.118;20.728;2024-03-23T04:36:55;100301.91;;;13.01
82774;BMP280;72508;45.118;20.728;2024-03-23T04:46:57;100310.47;;;13.08
82774;BMP280;72508;45.118;20.728;2024-03-23T04:57:01;100309.34;;;13.04
82774;BMP280;72508;45.118;20.728;2024-03-23T05:07:06;100313.09;;;13.08
82774;BMP280;72508;45.118;20.728;2024-03-23T05:17:09;100298.81;;;13.04
82774;BMP280;72508;45.118;20.728;2024-03-23T05:27:11;100298.59;;;13.17
82774;BMP280;72508;45.118;20.728;2024-03-23T05:37:13;100295.81;;;13.35
82774;BMP280;72508;45.118;20.728;2024-03-23T05:47:14;100292.13;;;13.60
82774;BMP280;72508;45.118;20.728;2024-03-23T05:57:17;100286.78;;;13.83
82774;BMP280;72508;45.118;20.728;2024-03-23T06:07:20;100274.09;;;14.09
82774;BMP280;72508;45.118;20.728;2024-03-23T06:17:22;100260.84;;;14.38
82774;BMP280;72508;45.118;20.728;2024-03-23T06:27:24;100278.81;;;14.75
82774;BMP280;72508;45.118;20.728;2024-03-23T06:37:25;100270.88;;;15.13
82774;BMP280;72508;45.118;20.728;2024-03-23T06:47:27;100268.09;;;15.69
82774;BMP280;72508;45.118;20.728;2024-03-23T06:57:29;100258.75;;;16.16
82774;BMP280;72508;45.118;20.728;2024-03-23T07:07:31;100257.94;;;16.52
82774;BMP280;72508;45.118;20.728;2024-03-23T07:17:48;100260.59;;;17.00
82774;BMP280;72508;45.118;20.728;2024-03-23T07:27:53;100259.69;;;17.57
82774;BMP280;72508;45.118;20.728;2024-03-23T07:37:54;100244.09;;;18.17
82774;BMP280;72508;45.118;20.728;2024-03-23T07:47:56;100228.66;;;18.29
82774;BMP280;72508;45.118;20.728;2024-03-23T07:57:58;100215.78;;;18.77
82774;BMP280;72508;45.118;20.728;2024-03-23T08:08:00;100215.06;;;19.11
82774;BMP280;72508;45.118;20.728;2024-03-23T08:18:02;100212.59;;;19.59
82774;BMP280;72508;45.118;20.728;2024-03-23T08:28:04;100212.53;;;19.99
82774;BMP280;72508;45.118;20.728;2024-03-23T08:38:06;100205.25;;;20.76
82774;BMP280;72508;45.118;20.728;2024-03-23T08:48:07;100187.13;;;20.97
82774;BMP280;72508;45.118;20.728;2024-03-23T08:58:10;100163.16;;;21.63
82774;BMP280;72508;45.118;20.728;2024-03-23T09:08:13;100152.88;;;21.97
82774;BMP280;72508;45.118;20.728;2024-03-23T09:18:15;100147.31;;;22.35
82774;BMP280;72508;45.118;20.728;2024-03-23T09:28:17;100135.69;;;22.53
82774;BMP280;72508;45.118;20.728;2024-03-23T09:38:19;100118.81;;;23.51
82774;BMP280;72508;45.118;20.728;2024-03-23T09:48:20;100104.94;;;24.15
82774;BMP280;72508;45.118;20.728;2024-03-23T09:58:23;100075.97;;;24.00
82774;BMP280;72508;45.118;20.728;2024-03-23T10:08:25;100055.75;;;24.72
82774;BMP280;72508;45.118;20.728;2024-03-23T10:18:27;100049.16;;;25.08
82774;BMP280;72508;45.118;20.728;2024-03-23T10:28:30;100038.75;;;25.36
82774;BMP280;72508;45.118;20.728;2024-03-23T10:38:32;100014.78;;;26.14
82774;BMP280;72508;45.118;20.728;2024-03-23T10:48:34;99986.91;;;26.07
82774;BMP280;72508;45.118;20.728;2024-03-23T10:58:42;99972.56;;;25.90
82774;BMP280;72508;45.118;20.728;2024-03-23T11:08:44;99958.22;;;26.44
82774;BMP280;72508;45.118;20.728;2024-03-23T11:18:47;99930.81;;;26.51
82774;BMP280;72508;45.118;20.728;2024-03-23T11:28:48;99911.75;;;27.77
82774;BMP280;72508;45.118;20.728;2024-03-23T11:38:50;99877.09;;;27.59
82774;BMP280;72508;45.118;20.728;2024-03-23T11:48:56;99864.41;;;27.75
82774;BMP280;72508;45.118;20.728;2024-03-23T11:58:57;99839.94;;;28.86
82774;BMP280;72508;45.118;20.728;2024-03-23T12:09:05;99822.16;;;28.27
82774;BMP280;72508;45.118;20.728;2024-03-23T12:19:08;99800.91;;;28.99
82774;BMP280;72508;45.118;20.728;2024-03-23T12:29:10;99784.22;;;29.13
82774;BMP280;72508;45.118;20.728;2024-03-23T12:39:12;99764.56;;;28.70
82774;BMP280;72508;45.118;20.728;2024-03-23T12:49:13;99745.63;;;29.59
82774;BMP280;72508;45.118;20.728;2024-03-23T12:59:15;99726.50;;;28.72
82774;BMP280;72508;45.118;20.728;2024-03-23T13:09:17;99712.03;;;29.03
82774;BMP280;72508;45.118;20.728;2024-03-23T13:19:19;99708.50;;;29.25
82774;BMP280;72508;45.118;20.728;2024-03-23T13:29:22;99693.25;;;29.33
82774;BMP280;72508;45.118;20.728;2024-03-23T13:39:25;99676.66;;;28.62
82774;BMP280;72508;45.118;20.728;2024-03-23T13:49:29;99657.91;;;28.27
82774;BMP280;72508;45.118;20.728;2024-03-23T13:59:32;99646.88;;;28.13
82774;BMP280;72508;45.118;20.728;2024-03-23T14:09:33;99635.06;;;28.40
82774;BMP280;72508;45.118;20.728;2024-03-23T14:19:35;99621.09;;;27.73
82774;BMP280;72508;45.118;20.728;2024-03-23T14:29:37;99608.69;;;27.33
82774;BMP280;72508;45.118;20.728;2024-03-23T14:39:38;99600.72;;;27.21
82774;BMP280;72508;45.118;20.728;2024-03-23T14:49:43;99599.44;;;27.15
82774;BMP280;72508;45.118;20.728;2024-03-23T14:59:48;99577.38;;;27.25
82774;BMP280;72508;45.118;20.728;2024-03-23T15:09:49;99569.13;;;26.67
82774;BMP280;72508;45.118;20.728;2024-03-23T15:19:51;99552.94;;;26.35
82774;BMP280;72508;45.118;20.728;2024-03-23T15:29:56;99559.31;;;26.15
82774;BMP280;72508;45.118;20.728;2024-03-23T15:39:59;99542.63;;;25.93
82774;BMP280;72508;45.118;20.728;2024-03-23T15:50:01;99525.22;;;25.87
82774;BMP280;72508;45.118;20.728;2024-03-23T16:00:06;99516.78;;;25.61
82774;BMP280;72508;45.118;20.728;2024-03-23T16:10:14;99498.06;;;25.48
82774;BMP280;72508;45.118;20.728;2024-03-23T16:20:16;99486.25;;;25.25
82774;BMP280;72508;45.118;20.728;2024-03-23T16:30:18;99485.16;;;25.14
82774;BMP280;72508;45.118;20.728;2024-03-23T16:40:20;99488.16;;;24.88
82774;BMP280;72508;45.118;20.728;2024-03-23T16:50:21;99480.91;;;24.52
82774;BMP280;72508;45.118;20.728;2024-03-23T17:00:23;99478.13;;;24.27
82774;BMP280;72508;45.118;20.728;2024-03-23T17:10:25;99478.66;;;23.87
82774;BMP280;72508;45.118;20.728;2024-03-23T17:20:27;99480.81;;;23.73
82774;BMP280;72508;45.118;20.728;2024-03-23T17:30:29;99487.09;;;23.47
82774;BMP280;72508;45.118;20.728;2024-03-23T17:40:31;99491.03;;;23.29
82774;BMP280;72508;45.118;20.728;2024-03-23T17:50:33;99493.41;;;23.22
82774;BMP280;72508;45.118;20.728;2024-03-23T18:00:34;99495.28;;;23.21
82774;BMP280;72508;45.118;20.728;2024-03-23T18:10:36;99494.22;;;23.14
82774;BMP280;72508;45.118;20.728;2024-03-23T18:20:38;99487.38;;;22.95
82774;BMP280;72508;45.118;20.728;2024-03-23T18:30:39;99499.53;;;22.84
82774;BMP280;72508;45.118;20.728;2024-03-23T18:40:45;99498.75;;;22.75
82774;BMP280;72508;45.118;20.728;2024-03-23T18:50:47;99507.56;;;22.67
82774;BMP280;72508;45.118;20.728;2024-03-23T19:00:55;99480.13;;;22.58
82774;BMP280;72508;45.118;20.728;2024-03-23T19:10:59;99474.94;;;22.52
82774;BMP280;72508;45.118;20.728;2024-03-23T19:21:01;99490.69;;;22.28
82774;BMP280;72508;45.118;20.728;2024-03-23T19:31:03;99472.00;;;22.37
82774;BMP280;72508;45.118;20.728;2024-03-23T19:41:04;99465.91;;;22.10
82774;BMP280;72508;45.118;20.728;2024-03-23T19:51:06;99496.66;;;22.07
82774;BMP280;72508;45.118;20.728;2024-03-23T20:01:15;99500.44;;;21.98
82774;BMP280;72508;45.118;20.728;2024-03-23T20:11:17;99506.34;;;21.86
82774;BMP280;72508;45.118;20.728;2024-03-23T20:21:19;99513.47;;;21.99
82774;BMP280;72508;45.118;20.728;2024-03-23T20:31:21;99524.72;;;21.96
82774;BMP280;72508;45.118;20.728;2024-03-23T20:41:22;99497.91;;;21.93
82774;BMP280;72508;45.118;20.728;2024-03-23T20:51:25;99487.22;;;21.67
82774;BMP280;72508;45.118;20.728;2024-03-23T21:01:27;99498.44;;;21.46
82774;BMP280;72508;45.118;20.728;2024-03-23T21:11:33;99470.50;;;21.35
82774;BMP280;72508;45.118;20.728;2024-03-23T21:21:35;99433.59;;;21.42
82774;BMP280;72508;45.118;20.728;2024-03-23T21:31:37;99416.72;;;21.16
82774;BMP280;72508;45.118;20.728;2024-03-23T21:41:38;99445.16;;;20.98
82774;BMP280;72508;45.118;20.728;2024-03-23T21:51:40;99439.72;;;21.11
82774;BMP280;72508;45.118;20.728;2024-03-23T22:01:42;99437.75;;;20.86
82774;BMP280;72508;45.118;20.728;2024-03-23T22:11:43;99435.84;;;20.78
82774;BMP280;72508;45.118;20.728;2024-03-23T22:21:45;99432.41;;;20.77
82774;BMP280;72508;45.118;20.728;2024-03-23T22:31:47;99421.69;;;20.69
82774;BMP280;72508;45.118;20.728;2024-03-23T22:41:49;99453.28;;;20.39
82774;BMP280;72508;45.118;20.728;2024-03-23T22:51:50;99503.69;;;20.08
82774;BMP280;72508;45.118;20.728;2024-03-23T23:01:52;99522.25;;;19.44
82774;BMP280;72508;45.118;20.728;2024-03-23T23:11:54;99536.47;;;18.88
82774;BMP280;72508;45.118;20.728;2024-03-23T23:21:57;99563.88;;;18.45
82774;BMP280;72508;45.118;20.728;2024-03-23T23:31:59;99582.13;;;18.04
82774;BMP280;72508;45.118;20.728;2024-03-23T23:42:00;99582.88;;;17.85
82774;BMP280;72508;45.118;20.728;2024-03-23T23:52:02;99552.69;;;17.57
